createdAt,value
2023-05-06T00:01:04.814Z,96974.91
2023-05-06T00:03:34.426Z,96965.97
2023-05-06T00:06:06.409Z,96953.50
2023-05-06T00:08:34.874Z,96944.81
2023-05-06T00:11:03.806Z,96954.78
2023-05-06T00:13:32.480Z,96954.28
2023-05-06T00:16:01.226Z,96949.03
2023-05-06T00:18:29.846Z,96945.56
2023-05-06T00:20:58.534Z,96942.72
2023-05-06T00:23:28.482Z,96943.28
2023-05-06T00:25:57.414Z,96946.91
2023-05-06T00:28:26.062Z,96942.50
2023-05-06T00:30:54.982Z,96943.06
2023-05-06T00:33:23.612Z,96938.03
2023-05-06T00:35:54.021Z,96944.56
2023-05-06T00:38:22.989Z,96938.91
2023-05-06T00:40:52.636Z,96934.72
2023-05-06T00:43:21.237Z,96936.91
2023-05-06T00:45:50.173Z,96933.00
2023-05-06T00:48:19.381Z,96931.06
2023-05-06T00:50:47.787Z,96932.09
2023-05-06T00:53:17.005Z,96936.78
2023-05-06T00:55:45.655Z,96934.63
2023-05-06T00:58:16.031Z,96925.69
2023-05-06T01:00:44.990Z,96921.47
2023-05-06T01:03:13.811Z,96919.06
2023-05-06T01:05:54.699Z,96922.84
2023-05-06T01:08:32.942Z,96919.69
2023-05-06T01:11:10.919Z,96915.13
2023-05-06T01:13:48.143Z,96918.41
2023-05-06T01:16:19.941Z,96916.94
2023-05-06T01:18:53.549Z,96905.38
2023-05-06T01:21:24.746Z,96903.09
2023-05-06T01:23:57.917Z,96918.53
2023-05-06T01:26:27.212Z,96914.41
2023-05-06T01:28:55.965Z,96916.81
2023-05-06T01:31:29.789Z,96914.06
2023-05-06T01:34:11.097Z,96921.63
2023-05-06T01:36:52.414Z,96921.72
2023-05-06T01:39:27.809Z,96922.72
2023-05-06T01:41:59.291Z,96925.53
2023-05-06T01:44:33.336Z,96931.25
2023-05-06T01:47:02.927Z,96920.84
2023-05-06T01:49:31.888Z,96925.41
2023-05-06T01:52:00.534Z,96935.22
2023-05-06T01:54:31.457Z,96926.91
2023-05-06T01:57:00.268Z,96927.94
2023-05-06T01:59:29.692Z,96929.00
2023-05-06T02:01:58.667Z,96940.25
2023-05-06T02:04:27.384Z,96936.47
2023-05-06T02:06:56.786Z,96931.81
2023-05-06T02:09:26.083Z,96927.47
2023-05-06T02:12:00.583Z,96932.16
2023-05-06T02:14:29.220Z,96941.66
2023-05-06T02:16:59.295Z,96939.59
2023-05-06T02:19:27.635Z,96944.72
2023-05-06T02:21:56.435Z,96939.94
2023-05-06T02:24:25.159Z,96940.72
2023-05-06T02:26:53.939Z,96937.44
2023-05-06T02:29:23.563Z,96932.28
2023-05-06T02:31:52.373Z,96925.84
2023-05-06T02:34:21.182Z,96926.44
2023-05-06T02:36:50.291Z,96928.13
2023-05-06T02:39:18.936Z,96927.31
2023-05-06T02:41:47.531Z,96919.22
2023-05-06T02:44:16.115Z,96917.22
2023-05-06T02:46:46.980Z,96927.16
2023-05-06T02:49:15.903Z,96928.38
2023-05-06T02:51:44.525Z,96927.75
2023-05-06T02:54:13.117Z,96933.59
2023-05-06T02:56:43.227Z,96918.06
2023-05-06T02:59:13.266Z,96919.56
2023-05-06T03:01:41.888Z,96912.44
2023-05-06T03:04:11.878Z,96918.63
2023-05-06T03:06:40.782Z,96920.03
2023-05-06T03:09:09.848Z,96918.31
2023-05-06T03:11:38.778Z,96919.44
2023-05-06T03:14:08.763Z,96920.59
2023-05-06T03:16:37.523Z,96919.09
2023-05-06T03:19:06.624Z,96926.06
2023-05-06T03:21:36.971Z,96927.00
2023-05-06T03:24:06.142Z,96920.03
2023-05-06T03:26:37.465Z,96909.38
2023-05-06T03:29:07.120Z,96908.59
2023-05-06T03:31:36.595Z,96911.00
2023-05-06T03:34:05.052Z,96907.91
2023-05-06T03:36:35.980Z,96906.53
2023-05-06T03:39:04.933Z,96909.25
2023-05-06T03:41:35.991Z,96921.28
2023-05-06T03:44:04.668Z,96927.13
2023-05-06T03:46:33.688Z,96929.41
2023-05-06T03:49:03.464Z,96934.09
2023-05-06T03:51:32.500Z,96935.25
2023-05-06T03:54:03.525Z,96940.84
2023-05-06T03:56:33.279Z,96936.97
2023-05-06T03:59:02.525Z,96939.72
2023-05-06T04:01:31.674Z,96945.88
2023-05-06T04:04:01.427Z,96935.03
2023-05-06T04:06:30.257Z,96939.25
2023-05-06T04:08:58.560Z,96933.84
2023-05-06T04:11:29.870Z,96929.72
2023-05-06T04:13:59.915Z,96929.28
2023-05-06T04:16:29.160Z,96930.31
2023-05-06T04:18:58.555Z,96928.72
2023-05-06T04:21:27.853Z,96913.72
2023-05-06T04:24:02.529Z,96924.03
2023-05-06T04:26:39.040Z,96930.56
2023-05-06T04:29:07.942Z,96939.47
2023-05-06T04:31:42.406Z,96939.38
2023-05-06T04:34:13.703Z,96943.25
2023-05-06T04:36:42.864Z,96940.03
2023-05-06T04:39:47.426Z,96937.97
2023-05-06T04:42:17.619Z,96943.03
2023-05-06T04:45:07.179Z,96941.66
2023-05-06T04:47:38.095Z,96952.06
2023-05-06T04:50:08.737Z,96957.53
2023-05-06T04:52:37.683Z,96962.34
2023-05-06T04:55:07.862Z,96955.25
2023-05-06T04:57:40.529Z,96954.53
2023-05-06T05:00:11.530Z,96970.69
2023-05-06T05:02:40.578Z,96970.81
2023-05-06T05:05:10.212Z,96970.56
2023-05-06T05:07:39.101Z,96967.84
2023-05-06T05:10:10.486Z,96973.66
2023-05-06T05:12:41.916Z,96976.88
2023-05-06T05:15:11.452Z,96970.56
2023-05-06T05:17:40.624Z,96964.41
2023-05-06T05:20:10.598Z,96973.03
2023-05-06T05:22:39.775Z,96976.47
2023-05-06T05:25:09.281Z,96972.69
2023-05-06T05:27:39.047Z,96971.06
2023-05-06T05:30:10.782Z,96973.38
2023-05-06T05:32:41.099Z,96977.84
2023-05-06T05:35:11.303Z,96982.66
2023-05-06T05:37:42.129Z,96984.22
2023-05-06T05:40:11.850Z,96985.19
2023-05-06T05:42:43.152Z,96981.88
2023-05-06T05:45:22.189Z,96982.28
2023-05-06T05:47:53.779Z,96979.22
2023-05-06T05:50:24.308Z,96978.72
2023-05-06T05:52:53.478Z,96984.88
2023-05-06T05:55:23.775Z,96975.94
2023-05-06T05:57:53.553Z,96968.56
2023-05-06T06:00:24.990Z,96979.75
2023-05-06T06:03:00.099Z,96982.16
2023-05-06T06:05:28.995Z,96979.59
2023-05-06T06:08:02.226Z,96986.69
2023-05-06T06:10:32.978Z,96988.75
2023-05-06T06:13:06.131Z,96989.13
2023-05-06T06:15:37.452Z,96989.28
2023-05-06T06:18:08.999Z,96989.59
2023-05-06T06:20:39.536Z,96983.13
2023-05-06T06:23:08.842Z,96986.00
2023-05-06T06:25:37.627Z,96996.75
2023-05-06T06:28:06.590Z,96987.53
2023-05-06T06:30:36.307Z,96992.88
2023-05-06T06:33:04.988Z,96993.75
2023-05-06T06:35:33.356Z,96998.72
2023-05-06T06:38:02.931Z,96994.66
2023-05-06T06:40:31.613Z,97000.75
2023-05-06T06:43:01.137Z,97005.47
2023-05-06T06:45:51.095Z,96997.75
2023-05-06T06:48:20.715Z,96999.88
2023-05-06T06:50:49.352Z,97004.25
2023-05-06T06:53:19.242Z,97010.53
2023-05-06T06:55:48.003Z,96999.28
2023-05-06T06:58:16.330Z,97003.47
2023-05-06T07:00:45.605Z,97002.22
2023-05-06T07:03:15.931Z,97007.75
2023-05-06T07:05:45.149Z,97022.75
2023-05-06T07:08:13.772Z,97024.00
2023-05-06T07:10:42.032Z,97022.09
2023-05-06T07:13:10.762Z,97031.44
2023-05-06T07:15:39.422Z,97026.84
2023-05-06T07:18:08.123Z,97029.78
2023-05-06T07:20:38.147Z,97025.88
2023-05-06T07:23:06.770Z,97026.00
2023-05-06T07:25:35.507Z,97037.53
2023-05-06T07:28:05.014Z,97034.63
2023-05-06T07:30:33.638Z,97039.13
2023-05-06T07:33:02.270Z,97033.63
2023-05-06T07:35:32.336Z,97040.81
2023-05-06T07:38:01.983Z,97039.19
2023-05-06T07:40:30.577Z,97037.13
2023-05-06T07:42:59.143Z,97043.91
2023-05-06T07:45:27.564Z,97048.16
2023-05-06T07:47:56.218Z,97046.16
2023-05-06T07:50:24.881Z,97049.66
2023-05-06T07:52:53.530Z,97045.84
2023-05-06T07:55:23.169Z,97055.69
2023-05-06T07:57:51.750Z,97052.97
2023-05-06T08:00:20.637Z,97047.25
2023-05-06T08:02:49.019Z,97052.91
2023-05-06T08:05:18.173Z,97062.13
2023-05-06T08:07:47.463Z,97059.13
2023-05-06T08:10:16.159Z,97060.44
2023-05-06T08:12:46.127Z,97064.22
2023-05-06T08:15:15.058Z,97070.59
2023-05-06T08:17:44.049Z,97063.06
2023-05-06T08:20:14.783Z,97067.19
2023-05-06T08:22:43.391Z,97062.50
2023-05-06T08:25:12.475Z,97062.47
2023-05-06T08:27:41.556Z,97065.00
2023-05-06T08:30:13.141Z,97068.47
2023-05-06T08:32:41.930Z,97075.50
2023-05-06T08:35:11.521Z,97080.31
2023-05-06T08:37:40.055Z,97078.84
2023-05-06T08:40:21.360Z,97077.97
2023-05-06T08:42:50.893Z,97077.06
2023-05-06T08:45:20.964Z,97083.75
2023-05-06T08:47:49.806Z,97071.13
2023-05-06T08:50:18.520Z,97070.22
2023-05-06T08:52:48.711Z,97069.78
2023-05-06T08:55:18.178Z,97070.59
2023-05-06T08:57:46.980Z,97070.13
2023-05-06T09:00:17.524Z,97066.16
2023-05-06T09:02:47.279Z,97069.34
2023-05-06T09:05:16.395Z,97064.53
2023-05-06T09:07:45.390Z,97062.16
2023-05-06T09:10:17.966Z,97064.13
2023-05-06T09:12:46.846Z,97069.34
2023-05-06T09:15:16.376Z,97072.47
2023-05-06T09:17:46.855Z,97068.81
2023-05-06T09:20:15.636Z,97072.47
2023-05-06T09:22:44.420Z,97068.75
2023-05-06T09:25:13.318Z,97070.16
2023-05-06T09:27:42.518Z,97060.22
2023-05-06T09:30:13.308Z,97062.09
2023-05-06T09:32:43.165Z,97062.78
2023-05-06T09:35:13.232Z,97064.88
2023-05-06T09:37:42.438Z,97069.72
2023-05-06T09:40:12.047Z,97062.25
2023-05-06T09:42:40.919Z,97064.38
2023-05-06T09:45:11.858Z,97055.03
2023-05-06T09:47:40.827Z,97053.41
2023-05-06T09:50:14.916Z,97062.28
2023-05-06T09:52:46.739Z,97053.56
2023-05-06T09:55:15.929Z,97063.63
2023-05-06T09:57:46.562Z,97054.63
2023-05-06T10:00:17.156Z,97047.09
2023-05-06T10:02:48.066Z,97052.31
2023-05-06T10:05:18.805Z,97045.41
2023-05-06T10:07:50.788Z,97047.59
2023-05-06T10:10:19.435Z,97048.91
2023-05-06T10:12:51.261Z,97041.63
2023-05-06T10:15:20.072Z,97045.34
2023-05-06T10:17:52.900Z,97046.66
2023-05-06T10:20:25.379Z,97038.78
2023-05-06T10:23:08.245Z,97054.06
2023-05-06T10:25:39.603Z,97039.47
2023-05-06T10:28:16.045Z,97045.09
2023-05-06T10:30:59.820Z,97038.81
2023-05-06T10:33:29.918Z,97030.38
2023-05-06T10:36:16.091Z,97028.81
2023-05-06T10:38:47.370Z,97030.22
2023-05-06T10:41:16.917Z,97012.78
2023-05-06T10:43:46.481Z,97030.81
2023-05-06T10:46:16.806Z,97017.16
2023-05-06T10:49:20.670Z,97014.81
2023-05-06T10:52:12.999Z,97016.06
2023-05-06T10:54:52.165Z,97017.25
2023-05-06T10:57:27.070Z,97016.81
2023-05-06T10:59:58.746Z,97005.69
2023-05-06T11:02:31.344Z,97014.50
2023-05-06T11:05:02.570Z,97003.88
2023-05-06T11:07:34.469Z,97005.25
2023-05-06T11:10:07.402Z,97002.53
2023-05-06T11:12:51.153Z,97004.59
2023-05-06T11:15:25.626Z,96998.56
2023-05-06T11:17:55.933Z,97002.31
2023-05-06T11:20:26.406Z,96992.75
2023-05-06T11:22:56.424Z,96988.25
2023-05-06T11:25:45.062Z,96993.63
2023-05-06T11:28:15.455Z,96997.56
2023-05-06T11:30:45.682Z,97000.81
2023-05-06T11:33:19.568Z,97003.34
2023-05-06T11:35:49.367Z,97004.09
2023-05-06T11:38:19.138Z,97003.19
2023-05-06T11:40:47.806Z,96996.56
2023-05-06T11:43:17.565Z,96994.53
2023-05-06T11:45:47.126Z,97006.41
2023-05-06T11:48:16.730Z,96998.25
2023-05-06T11:50:50.189Z,97000.72
2023-05-06T11:53:23.553Z,96993.94
2023-05-06T11:55:55.143Z,96993.56
2023-05-06T11:58:28.268Z,96997.81
2023-05-06T12:00:58.815Z,96990.06
2023-05-06T12:03:29.221Z,96990.56
2023-05-06T12:05:58.432Z,96995.09
2023-05-06T12:08:31.805Z,96989.69
2023-05-06T12:11:03.090Z,96992.72
2023-05-06T12:13:32.045Z,96992.00
2023-05-06T12:16:01.836Z,96988.00
2023-05-06T12:18:31.440Z,96984.09
2023-05-06T12:21:03.829Z,96983.22
2023-05-06T12:23:33.950Z,96987.25
2023-05-06T12:26:04.700Z,96978.78
2023-05-06T12:28:35.071Z,96984.59
2023-05-06T12:31:19.407Z,96982.63
2023-05-06T12:33:50.545Z,96979.09
2023-05-06T12:36:19.962Z,96975.31
2023-05-06T12:38:53.627Z,96977.66
2023-05-06T12:41:23.340Z,96978.00
2023-05-06T12:43:52.862Z,96979.66
2023-05-06T12:46:21.835Z,96975.28
2023-05-06T12:49:01.185Z,96978.91
2023-05-06T12:51:32.312Z,96976.50
2023-05-06T12:54:02.108Z,96972.53
2023-05-06T12:56:30.720Z,96971.75
2023-05-06T12:59:04.513Z,96971.50
2023-05-06T13:01:33.248Z,96967.53
2023-05-06T13:04:02.068Z,96969.25
2023-05-06T13:06:31.600Z,96964.22
2023-05-06T13:09:01.582Z,96963.44
2023-05-06T13:11:29.840Z,96965.53
2023-05-06T13:13:58.539Z,96954.69
2023-05-06T13:16:28.259Z,96955.03
2023-05-06T13:18:56.632Z,96956.41
2023-05-06T13:21:25.263Z,96958.50
2023-05-06T13:23:53.914Z,96953.19
2023-05-06T13:26:24.046Z,96956.88
2023-05-06T13:28:52.453Z,96944.97
2023-05-06T13:31:21.912Z,96956.13
2023-05-06T13:33:50.672Z,96946.16
2023-05-06T13:36:18.962Z,96950.94
2023-05-06T13:38:47.730Z,96935.81
2023-05-06T13:41:17.536Z,96948.13
2023-05-06T13:43:47.698Z,96937.88
2023-05-06T13:46:16.518Z,96940.59
2023-05-06T13:48:44.811Z,96938.38
2023-05-06T13:51:13.509Z,96938.13
2023-05-06T13:53:42.137Z,96928.06
2023-05-06T13:56:11.141Z,96924.78
2023-05-06T13:58:39.705Z,96928.13
2023-05-06T14:01:09.545Z,96921.84
2023-05-06T14:03:38.177Z,96916.75
2023-05-06T14:06:07.439Z,96913.38
2023-05-06T14:08:36.204Z,96921.25
2023-05-06T14:11:04.838Z,96909.94
2023-05-06T14:13:34.797Z,96917.81
2023-05-06T14:16:03.624Z,96906.34
2023-05-06T14:18:35.049Z,96906.72
2023-05-06T14:21:03.710Z,96910.47
2023-05-06T14:23:32.832Z,96903.53
2023-05-06T14:26:01.566Z,96904.41
2023-05-06T14:28:29.864Z,96891.78
2023-05-06T14:30:59.652Z,96896.84
2023-05-06T14:33:28.412Z,96898.72
2023-05-06T14:35:58.386Z,96903.00
2023-05-06T14:38:27.095Z,96900.72
2023-05-06T14:40:56.362Z,96900.69
2023-05-06T14:43:26.154Z,96892.03
2023-05-06T14:45:54.796Z,96895.16
2023-05-06T14:48:25.390Z,96890.00
2023-05-06T14:50:54.159Z,96878.16
2023-05-06T14:53:23.825Z,96890.66
2023-05-06T14:55:52.538Z,96881.91
2023-05-06T14:58:21.215Z,96895.69
2023-05-06T15:00:50.178Z,96897.72
2023-05-06T15:03:19.137Z,96882.84
2023-05-06T15:05:47.826Z,96895.63
2023-05-06T15:08:16.286Z,96893.72
2023-05-06T15:10:46.098Z,96888.81
2023-05-06T15:13:14.566Z,96889.56
2023-05-06T15:15:43.394Z,96881.94
2023-05-06T15:18:13.405Z,96879.31
2023-05-06T15:20:42.076Z,96879.63
2023-05-06T15:23:10.773Z,96871.81
2023-05-06T15:25:39.800Z,96881.38
2023-05-06T15:28:09.931Z,96875.97
2023-05-06T15:30:39.242Z,96880.56
2023-05-06T15:33:08.900Z,96885.69
2023-05-06T15:35:37.416Z,96889.50
2023-05-06T15:38:06.280Z,96882.44
2023-05-06T15:40:35.649Z,96878.84
2023-05-06T15:43:05.698Z,96879.59
2023-05-06T15:45:36.409Z,96875.94
2023-05-06T15:48:05.469Z,96883.81
2023-05-06T15:50:34.491Z,96878.91
2023-05-06T15:53:03.627Z,96871.91
2023-05-06T15:55:35.060Z,96880.91
2023-05-06T15:58:12.353Z,96878.72
2023-05-06T16:00:42.396Z,96880.09
2023-05-06T16:03:12.364Z,96879.44
2023-05-06T16:05:41.448Z,96876.81
2023-05-06T16:08:10.138Z,96876.50
2023-05-06T16:10:38.936Z,96879.63
2023-05-06T16:13:07.989Z,96883.75
2023-05-06T16:15:36.787Z,96875.38
2023-05-06T16:18:07.330Z,96882.59
2023-05-06T16:20:36.156Z,96879.38
2023-05-06T16:23:05.321Z,96878.75
2023-05-06T16:25:34.675Z,96877.44
2023-05-06T16:28:03.565Z,96883.59
2023-05-06T16:30:32.133Z,96867.16
2023-05-06T16:33:00.826Z,96873.34
2023-05-06T16:35:31.206Z,96872.66
2023-05-06T16:37:59.894Z,96875.03
2023-05-06T16:40:29.970Z,96874.31
2023-05-06T16:42:58.702Z,96875.84
2023-05-06T16:45:27.398Z,96865.13
2023-05-06T16:47:56.068Z,96867.00
2023-05-06T16:50:24.748Z,96874.19
2023-05-06T16:52:54.479Z,96868.09
2023-05-06T16:55:23.232Z,96869.81
2023-05-06T16:57:52.284Z,96872.63
2023-05-06T17:00:21.595Z,96869.03
2023-05-06T17:02:50.368Z,96872.25
2023-05-06T17:05:20.711Z,96868.22
2023-05-06T17:07:51.069Z,96864.66
2023-05-06T17:10:22.042Z,96863.88
2023-05-06T17:12:51.268Z,96858.31
2023-05-06T17:15:20.028Z,96862.69
2023-05-06T17:17:48.787Z,96865.84
2023-05-06T17:20:17.377Z,96875.69
2023-05-06T17:22:46.017Z,96864.94
2023-05-06T17:25:14.826Z,96858.59
2023-05-06T17:27:45.766Z,96863.66
2023-05-06T17:30:15.179Z,96859.59
2023-05-06T17:32:44.028Z,96854.31
2023-05-06T17:35:13.682Z,96851.44
2023-05-06T17:37:42.569Z,96854.81
2023-05-06T17:40:12.982Z,96862.56
2023-05-06T17:42:41.660Z,96856.88
2023-05-06T17:45:13.167Z,96859.47
2023-05-06T17:47:41.852Z,96860.88
2023-05-06T17:50:12.007Z,96862.22
2023-05-06T17:52:41.017Z,96864.09
2023-05-06T17:55:15.527Z,96856.09
2023-05-06T17:57:45.816Z,96862.78
2023-05-06T18:00:17.484Z,96870.13
2023-05-06T18:02:46.551Z,96869.44
2023-05-06T18:05:15.487Z,96866.09
2023-05-06T18:07:43.898Z,96872.47
2023-05-06T18:10:13.230Z,96866.63
2023-05-06T18:12:42.129Z,96860.47
2023-05-06T18:15:11.740Z,96867.69
2023-05-06T18:17:42.270Z,96862.78
2023-05-06T18:20:11.873Z,96872.50
2023-05-06T18:22:42.816Z,96869.91
2023-05-06T18:25:11.969Z,96866.63
2023-05-06T18:27:41.399Z,96871.22
2023-05-06T18:30:10.626Z,96879.63
2023-05-06T18:32:39.355Z,96876.50
2023-05-06T18:35:11.534Z,96880.25
2023-05-06T18:37:40.628Z,96877.06
2023-05-06T18:40:10.809Z,96882.75
2023-05-06T18:42:39.381Z,96874.28
2023-05-06T18:45:10.005Z,96882.69
2023-05-06T18:47:40.289Z,96882.09
2023-05-06T18:50:11.768Z,96883.25
2023-05-06T18:52:40.162Z,96885.94
2023-05-06T18:55:10.141Z,96887.34
2023-05-06T18:57:39.617Z,96881.00
2023-05-06T19:00:09.519Z,96882.69
2023-05-06T19:02:38.011Z,96890.38
2023-05-06T19:05:08.491Z,96894.88
2023-05-06T19:07:38.535Z,96891.25
2023-05-06T19:10:08.451Z,96892.72
2023-05-06T19:12:37.374Z,96891.47
2023-05-06T19:15:07.057Z,96887.81
2023-05-06T19:17:35.784Z,96890.22
2023-05-06T19:20:04.906Z,96888.91
2023-05-06T19:22:33.701Z,96891.16
2023-05-06T19:25:03.470Z,96897.00
2023-05-06T19:27:32.139Z,96899.41
2023-05-06T19:30:00.782Z,96897.72
2023-05-06T19:32:29.433Z,96900.59
2023-05-06T19:34:59.104Z,96903.53
2023-05-06T19:37:30.230Z,96897.13
2023-05-06T19:39:58.861Z,96907.63
2023-05-06T19:42:29.087Z,96905.41
2023-05-06T19:44:57.816Z,96905.13
2023-05-06T19:47:27.392Z,96904.69
2023-05-06T19:49:56.041Z,96909.75
2023-05-06T19:52:26.942Z,96916.50
2023-05-06T19:54:55.352Z,96910.34
2023-05-06T19:57:24.065Z,96915.09
2023-05-06T19:59:54.236Z,96912.63
2023-05-06T20:02:23.456Z,96909.09
2023-05-06T20:04:52.162Z,96909.44
2023-05-06T20:07:21.770Z,96908.59
2023-05-06T20:09:55.362Z,96908.00
2023-05-06T20:12:26.315Z,96914.59
2023-05-06T20:14:56.976Z,96914.94
2023-05-06T20:17:25.888Z,96910.19
2023-05-06T20:19:57.282Z,96918.06
2023-05-06T20:22:26.063Z,96915.22
2023-05-06T20:25:08.147Z,96917.38
2023-05-06T20:27:37.116Z,96911.53
2023-05-06T20:30:09.707Z,96919.22
2023-05-06T20:32:39.159Z,96914.06
2023-05-06T20:35:09.024Z,96915.09
2023-05-06T20:37:38.196Z,96912.19
2023-05-06T20:40:09.759Z,96905.06
2023-05-06T20:42:38.616Z,96909.19
2023-05-06T20:45:10.452Z,96907.72
2023-05-06T20:47:39.521Z,96902.13
2023-05-06T20:50:08.729Z,96905.00
2023-05-06T20:52:37.669Z,96901.59
2023-05-06T20:55:07.182Z,96900.56
2023-05-06T20:57:36.321Z,96902.50
2023-05-06T21:00:05.487Z,96910.84
2023-05-06T21:02:40.051Z,96916.00
2023-05-06T21:05:10.732Z,96912.81
2023-05-06T21:07:39.940Z,96914.75
2023-05-06T21:10:11.066Z,96914.06
2023-05-06T21:12:40.002Z,96907.84
2023-05-06T21:15:10.484Z,96914.41
2023-05-06T21:17:40.848Z,96908.00
2023-05-06T21:20:10.654Z,96911.53
2023-05-06T21:22:39.323Z,96908.44
2023-05-06T21:25:09.750Z,96919.56
2023-05-06T21:27:38.427Z,96919.97
2023-05-06T21:30:08.977Z,96916.28
2023-05-06T21:32:38.995Z,96923.56
2023-05-06T21:35:09.104Z,96922.41
2023-05-06T21:37:37.892Z,96917.25
2023-05-06T21:40:07.569Z,96918.81
2023-05-06T21:42:36.206Z,96920.78
2023-05-06T21:45:05.296Z,96911.81
2023-05-06T21:47:34.039Z,96912.63
2023-05-06T21:50:04.234Z,96912.16
2023-05-06T21:52:33.192Z,96910.44
2023-05-06T21:55:02.215Z,96912.81
2023-05-06T21:57:31.137Z,96909.41
2023-05-06T22:00:00.158Z,96906.31
2023-05-06T22:02:29.017Z,96909.84
2023-05-06T22:04:57.731Z,96912.03
2023-05-06T22:07:27.589Z,96909.56
2023-05-06T22:09:56.346Z,96908.47
2023-05-06T22:12:25.241Z,96908.56
2023-05-06T22:14:53.890Z,96911.31
2023-05-06T22:17:23.125Z,96910.03
2023-05-06T22:19:52.030Z,96915.50
2023-05-06T22:22:21.707Z,96918.47
2023-05-06T22:24:51.598Z,96914.66
2023-05-06T22:27:20.741Z,96917.50
2023-05-06T22:29:49.387Z,96918.66
2023-05-06T22:32:20.206Z,96912.91
2023-05-06T22:34:49.043Z,96914.34
2023-05-06T22:37:17.940Z,96911.25
2023-05-06T22:39:47.520Z,96902.25
2023-05-06T22:42:17.549Z,96905.00
2023-05-06T22:44:46.346Z,96912.13
2023-05-06T22:47:16.869Z,96907.31
2023-05-06T22:49:45.712Z,96906.59
2023-05-06T22:52:14.358Z,96907.75
2023-05-06T22:54:43.149Z,96909.16
2023-05-06T22:57:11.884Z,96902.25
2023-05-06T22:59:41.671Z,96905.13
2023-05-06T23:02:10.261Z,96913.00
2023-05-06T23:04:40.462Z,96923.03
2023-05-06T23:07:09.360Z,96910.84
2023-05-06T23:09:38.164Z,96915.22
2023-05-06T23:12:07.739Z,96912.22
2023-05-06T23:14:36.633Z,96915.00
2023-05-06T23:17:07.252Z,96905.72
2023-05-06T23:19:36.482Z,96906.22
2023-05-06T23:22:05.672Z,96894.69
2023-05-06T23:24:34.474Z,96897.44
2023-05-06T23:27:03.385Z,96895.53
2023-05-06T23:29:31.874Z,96893.72
2023-05-06T23:32:00.655Z,96889.53
2023-05-06T23:34:30.746Z,96892.16
2023-05-06T23:36:59.806Z,96885.06
2023-05-06T23:39:28.511Z,96881.69
2023-05-06T23:42:00.523Z,96883.88
2023-05-06T23:44:29.253Z,96891.75
2023-05-06T23:46:57.922Z,96900.03
2023-05-06T23:49:26.622Z,96892.81
2023-05-06T23:51:56.547Z,96896.91
2023-05-06T23:54:25.749Z,96900.94
2023-05-06T23:56:54.399Z,96899.94
2023-05-06T23:59:22.784Z,96894.28
